sensor_id;sensor_type;location;lat;lon;timestamp;P1;durP1;ratioP1;P2;durP2;ratioP2
32964;SDS011;19317;48.226;11.686;2022-12-10T00:02:43;24.03;;;15.00;;
32964;SDS011;19317;48.226;11.686;2022-12-10T00:07:34;21.37;;;13.93;;
32964;SDS011;19317;48.226;11.686;2022-12-10T00:12:24;25.20;;;14.30;;
32964;SDS011;19317;48.226;11.686;2022-12-10T00:17:15;25.07;;;14.77;;
32964;SDS011;19317;48.226;11.686;2022-12-10T00:22:06;25.23;;;14.13;;
32964;SDS011;19317;48.226;11.686;2022-12-10T00:26:57;29.70;;;16.60;;
32964;SDS011;19317;48.226;11.686;2022-12-10T00:31:48;24.77;;;15.47;;
32964;SDS011;19317;48.226;11.686;2022-12-10T00:36:44;25.20;;;14.63;;
32964;SDS011;19317;48.226;11.686;2022-12-10T00:41:35;23.50;;;14.03;;
32964;SDS011;19317;48.226;11.686;2022-12-10T00:46:26;24.27;;;14.73;;
32964;SDS011;19317;48.226;11.686;2022-12-10T00:51:19;24.90;;;14.03;;
32964;SDS011;19317;48.226;11.686;2022-12-10T00:56:11;26.10;;;14.93;;
32964;SDS011;19317;48.226;11.686;2022-12-10T01:01:06;21.53;;;13.70;;
32964;SDS011;19317;48.226;11.686;2022-12-10T01:05:57;23.77;;;13.93;;
32964;SDS011;19317;48.226;11.686;2022-12-10T01:10:52;21.63;;;13.63;;
32964;SDS011;19317;48.226;11.686;2022-12-10T01:15:43;22.20;;;13.47;;
32964;SDS011;19317;48.226;11.686;2022-12-10T01:20:35;20.37;;;13.40;;
32964;SDS011;19317;48.226;11.686;2022-12-10T01:25:25;23.33;;;14.10;;
32964;SDS011;19317;48.226;11.686;2022-12-10T01:30:16;20.07;;;12.83;;
32964;SDS011;19317;48.226;11.686;2022-12-10T01:35:07;22.03;;;13.57;;
32964;SDS011;19317;48.226;11.686;2022-12-10T01:39:58;21.87;;;13.43;;
32964;SDS011;19317;48.226;11.686;2022-12-10T01:49:40;21.90;;;14.10;;
32964;SDS011;19317;48.226;11.686;2022-12-10T01:54:32;24.37;;;13.10;;
32964;SDS011;19317;48.226;11.686;2022-12-10T01:59:23;25.23;;;13.73;;
32964;SDS011;19317;48.226;11.686;2022-12-10T02:24:13;19.57;;;12.27;;
32964;SDS011;19317;48.226;11.686;2022-12-10T02:29:18;20.53;;;12.53;;
32964;SDS011;19317;48.226;11.686;2022-12-10T02:34:09;19.10;;;12.87;;
32964;SDS011;19317;48.226;11.686;2022-12-10T02:39:01;19.07;;;12.60;;
32964;SDS011;19317;48.226;11.686;2022-12-10T02:43:52;19.57;;;12.93;;
32964;SDS011;19317;48.226;11.686;2022-12-10T02:48:45;19.43;;;12.40;;
32964;SDS011;19317;48.226;11.686;2022-12-10T02:53:43;22.30;;;13.50;;
32964;SDS011;19317;48.226;11.686;2022-12-10T02:58:49;23.20;;;12.97;;
32964;SDS011;19317;48.226;11.686;2022-12-10T03:09:12;18.50;;;12.73;;
32964;SDS011;19317;48.226;11.686;2022-12-10T03:14:06;18.37;;;12.07;;
32964;SDS011;19317;48.226;11.686;2022-12-10T03:18:58;19.20;;;11.13;;
32964;SDS011;19317;48.226;11.686;2022-12-10T03:23:50;16.70;;;11.43;;
32964;SDS011;19317;48.226;11.686;2022-12-10T03:28:42;16.27;;;10.77;;
32964;SDS011;19317;48.226;11.686;2022-12-10T03:33:35;16.37;;;10.80;;
32964;SDS011;19317;48.226;11.686;2022-12-10T03:38:27;15.50;;;10.60;;
32964;SDS011;19317;48.226;11.686;2022-12-10T03:43:18;15.43;;;11.00;;
32964;SDS011;19317;48.226;11.686;2022-12-10T03:48:09;17.13;;;10.77;;
32964;SDS011;19317;48.226;11.686;2022-12-10T03:52:59;15.13;;;10.23;;
32964;SDS011;19317;48.226;11.686;2022-12-10T03:57:50;18.80;;;10.73;;
32964;SDS011;19317;48.226;11.686;2022-12-10T04:02:41;16.10;;;11.87;;
32964;SDS011;19317;48.226;11.686;2022-12-10T04:07:32;16.57;;;11.00;;
32964;SDS011;19317;48.226;11.686;2022-12-10T04:12:23;15.53;;;11.17;;
32964;SDS011;19317;48.226;11.686;2022-12-10T04:17:14;16.10;;;10.87;;
32964;SDS011;19317;48.226;11.686;2022-12-10T04:22:05;18.07;;;11.40;;
32964;SDS011;19317;48.226;11.686;2022-12-10T04:26:56;18.80;;;11.90;;
32964;SDS011;19317;48.226;11.686;2022-12-10T04:31:47;17.57;;;11.47;;
32964;SDS011;19317;48.226;11.686;2022-12-10T04:36:38;17.17;;;10.97;;
32964;SDS011;19317;48.226;11.686;2022-12-10T04:41:29;19.77;;;11.70;;
32964;SDS011;19317;48.226;11.686;2022-12-10T04:46:20;16.77;;;11.23;;
32964;SDS011;19317;48.226;11.686;2022-12-10T04:51:11;18.10;;;11.77;;
32964;SDS011;19317;48.226;11.686;2022-12-10T04:56:02;17.90;;;11.67;;
32964;SDS011;19317;48.226;11.686;2022-12-10T05:00:53;16.43;;;11.47;;
32964;SDS011;19317;48.226;11.686;2022-12-10T05:05:44;15.80;;;10.97;;
32964;SDS011;19317;48.226;11.686;2022-12-10T05:10:35;16.07;;;10.77;;
32964;SDS011;19317;48.226;11.686;2022-12-10T05:15:26;18.50;;;12.27;;
32964;SDS011;19317;48.226;11.686;2022-12-10T05:20:16;15.90;;;11.47;;
32964;SDS011;19317;48.226;11.686;2022-12-10T05:25:07;19.33;;;12.47;;
32964;SDS011;19317;48.226;11.686;2022-12-10T05:29:58;18.00;;;11.70;;
32964;SDS011;19317;48.226;11.686;2022-12-10T05:34:49;20.07;;;13.27;;
32964;SDS011;19317;48.226;11.686;2022-12-10T05:39:40;17.77;;;12.40;;
32964;SDS011;19317;48.226;11.686;2022-12-10T05:44:31;18.07;;;11.53;;
32964;SDS011;19317;48.226;11.686;2022-12-10T05:49:22;18.37;;;12.70;;
32964;SDS011;19317;48.226;11.686;2022-12-10T05:54:13;16.90;;;11.40;;
32964;SDS011;19317;48.226;11.686;2022-12-10T05:59:04;16.97;;;11.77;;
32964;SDS011;19317;48.226;11.686;2022-12-10T06:03:56;20.67;;;11.53;;
32964;SDS011;19317;48.226;11.686;2022-12-10T06:08:47;18.03;;;12.33;;
32964;SDS011;19317;48.226;11.686;2022-12-10T06:13:38;18.30;;;11.70;;
32964;SDS011;19317;48.226;11.686;2022-12-10T06:18:29;19.17;;;12.27;;
32964;SDS011;19317;48.226;11.686;2022-12-10T06:23:20;19.47;;;12.23;;
32964;SDS011;19317;48.226;11.686;2022-12-10T06:28:10;17.77;;;12.47;;
32964;SDS011;19317;48.226;11.686;2022-12-10T06:33:01;18.27;;;11.70;;
32964;SDS011;19317;48.226;11.686;2022-12-10T06:37:52;16.97;;;12.23;;
32964;SDS011;19317;48.226;11.686;2022-12-10T06:42:43;20.97;;;12.67;;
32964;SDS011;19317;48.226;11.686;2022-12-10T06:47:34;19.13;;;12.30;;
32964;SDS011;19317;48.226;11.686;2022-12-10T06:52:25;19.03;;;12.47;;
32964;SDS011;19317;48.226;11.686;2022-12-10T06:57:16;18.97;;;11.90;;
32964;SDS011;19317;48.226;11.686;2022-12-10T07:02:07;20.17;;;13.60;;
32964;SDS011;19317;48.226;11.686;2022-12-10T07:06:59;18.73;;;12.73;;
32964;SDS011;19317;48.226;11.686;2022-12-10T07:11:49;22.00;;;12.77;;
32964;SDS011;19317;48.226;11.686;2022-12-10T07:16:40;21.57;;;12.67;;
32964;SDS011;19317;48.226;11.686;2022-12-10T07:21:35;22.50;;;13.23;;
32964;SDS011;19317;48.226;11.686;2022-12-10T07:26:31;26.37;;;15.37;;
32964;SDS011;19317;48.226;11.686;2022-12-10T07:31:22;21.63;;;14.67;;
32964;SDS011;19317;48.226;11.686;2022-12-10T07:36:12;19.67;;;12.30;;
32964;SDS011;19317;48.226;11.686;2022-12-10T07:41:04;18.90;;;11.37;;
32964;SDS011;19317;48.226;11.686;2022-12-10T07:45:55;20.10;;;12.50;;
32964;SDS011;19317;48.226;11.686;2022-12-10T07:50:45;22.63;;;14.40;;
32964;SDS011;19317;48.226;11.686;2022-12-10T07:55:36;20.30;;;12.83;;
32964;SDS011;19317;48.226;11.686;2022-12-10T08:02:08;21.20;;;13.53;;
32964;SDS011;19317;48.226;11.686;2022-12-10T08:06:59;21.27;;;13.07;;
32964;SDS011;19317;48.226;11.686;2022-12-10T08:11:50;21.13;;;13.03;;
32964;SDS011;19317;48.226;11.686;2022-12-10T08:16:41;22.50;;;13.77;;
32964;SDS011;19317;48.226;11.686;2022-12-10T08:21:32;24.40;;;13.53;;
32964;SDS011;19317;48.226;11.686;2022-12-10T08:26:24;26.00;;;15.13;;
32964;SDS011;19317;48.226;11.686;2022-12-10T08:31:16;25.17;;;14.10;;
32964;SDS011;19317;48.226;11.686;2022-12-10T08:36:07;21.53;;;14.00;;
32964;SDS011;19317;48.226;11.686;2022-12-10T08:40:58;24.67;;;14.07;;
32964;SDS011;19317;48.226;11.686;2022-12-10T08:45:49;21.60;;;13.23;;
32964;SDS011;19317;48.226;11.686;2022-12-10T08:50:40;20.27;;;12.70;;
32964;SDS011;19317;48.226;11.686;2022-12-10T08:55:31;20.90;;;13.27;;
32964;SDS011;19317;48.226;11.686;2022-12-10T09:00:22;23.33;;;13.40;;
32964;SDS011;19317;48.226;11.686;2022-12-10T09:05:13;19.47;;;12.63;;
32964;SDS011;19317;48.226;11.686;2022-12-10T09:10:05;20.40;;;13.10;;
32964;SDS011;19317;48.226;11.686;2022-12-10T09:14:56;21.47;;;13.87;;
32964;SDS011;19317;48.226;11.686;2022-12-10T09:19:47;26.23;;;17.20;;
32964;SDS011;19317;48.226;11.686;2022-12-10T09:24:38;22.47;;;13.93;;
32964;SDS011;19317;48.226;11.686;2022-12-10T09:29:28;26.25;;;17.33;;
32964;SDS011;19317;48.226;11.686;2022-12-10T09:34:19;23.40;;;15.77;;
32964;SDS011;19317;48.226;11.686;2022-12-10T09:39:10;20.40;;;13.27;;
32964;SDS011;19317;48.226;11.686;2022-12-10T09:54:02;29.93;;;15.90;;
32964;SDS011;19317;48.226;11.686;2022-12-10T09:58:53;20.03;;;13.17;;
32964;SDS011;19317;48.226;11.686;2022-12-10T10:03:44;23.37;;;13.63;;
32964;SDS011;19317;48.226;11.686;2022-12-10T10:08:39;24.63;;;13.50;;
32964;SDS011;19317;48.226;11.686;2022-12-10T10:18:24;25.97;;;13.90;;
32964;SDS011;19317;48.226;11.686;2022-12-10T10:23:18;23.87;;;13.70;;
32964;SDS011;19317;48.226;11.686;2022-12-10T10:28:13;24.53;;;14.43;;
32964;SDS011;19317;48.226;11.686;2022-12-10T10:33:07;21.83;;;14.07;;
32964;SDS011;19317;48.226;11.686;2022-12-10T10:38:05;24.60;;;13.47;;
32964;SDS011;19317;48.226;11.686;2022-12-10T10:42:57;22.60;;;13.40;;
32964;SDS011;19317;48.226;11.686;2022-12-10T10:47:49;22.90;;;14.67;;
32964;SDS011;19317;48.226;11.686;2022-12-10T10:52:53;24.47;;;14.37;;
32964;SDS011;19317;48.226;11.686;2022-12-10T10:57:44;26.63;;;13.97;;
32964;SDS011;19317;48.226;11.686;2022-12-10T11:07:32;21.67;;;13.73;;
32964;SDS011;19317;48.226;11.686;2022-12-10T11:12:34;23.20;;;13.90;;
32964;SDS011;19317;48.226;11.686;2022-12-10T11:17:25;21.63;;;12.43;;
32964;SDS011;19317;48.226;11.686;2022-12-10T11:22:19;21.87;;;13.37;;
32964;SDS011;19317;48.226;11.686;2022-12-10T11:27:11;20.80;;;12.80;;
32964;SDS011;19317;48.226;11.686;2022-12-10T11:32:16;24.60;;;14.53;;
32964;SDS011;19317;48.226;11.686;2022-12-10T11:57:30;22.33;;;12.80;;
32964;SDS011;19317;48.226;11.686;2022-12-10T12:22:44;22.17;;;13.33;;
32964;SDS011;19317;48.226;11.686;2022-12-10T12:27:38;23.80;;;14.13;;
32964;SDS011;19317;48.226;11.686;2022-12-10T12:37:22;29.70;;;15.70;;
32964;SDS011;19317;48.226;11.686;2022-12-10T12:42:25;27.00;;;16.13;;
32964;SDS011;19317;48.226;11.686;2022-12-10T12:47:39;26.20;;;14.60;;
32964;SDS011;19317;48.226;11.686;2022-12-10T12:52:39;24.97;;;15.00;;
32964;SDS011;19317;48.226;11.686;2022-12-10T12:57:45;26.03;;;15.70;;
32964;SDS011;19317;48.226;11.686;2022-12-10T13:07:34;33.80;;;17.37;;
32964;SDS011;19317;48.226;11.686;2022-12-10T13:12:27;32.63;;;19.27;;
32964;SDS011;19317;48.226;11.686;2022-12-10T13:17:26;30.50;;;16.00;;
32964;SDS011;19317;48.226;11.686;2022-12-10T13:22:41;28.37;;;15.07;;
32964;SDS011;19317;48.226;11.686;2022-12-10T13:27:30;29.83;;;15.97;;
32964;SDS011;19317;48.226;11.686;2022-12-10T13:32:23;28.17;;;15.83;;
32964;SDS011;19317;48.226;11.686;2022-12-10T13:51:54;36.53;;;18.47;;
32964;SDS011;19317;48.226;11.686;2022-12-10T13:56:52;31.77;;;17.33;;
32964;SDS011;19317;48.226;11.686;2022-12-10T14:06:39;30.17;;;16.20;;
32964;SDS011;19317;48.226;11.686;2022-12-10T14:11:31;30.93;;;17.63;;
32964;SDS011;19317;48.226;11.686;2022-12-10T14:16:22;29.97;;;15.63;;
32964;SDS011;19317;48.226;11.686;2022-12-10T14:21:14;24.70;;;15.03;;
32964;SDS011;19317;48.226;11.686;2022-12-10T14:30:56;32.40;;;17.80;;
32964;SDS011;19317;48.226;11.686;2022-12-10T14:35:47;33.63;;;17.80;;
32964;SDS011;19317;48.226;11.686;2022-12-10T14:40:40;28.83;;;17.93;;
32964;SDS011;19317;48.226;11.686;2022-12-10T14:45:38;33.13;;;18.37;;
32964;SDS011;19317;48.226;11.686;2022-12-10T14:50:32;33.53;;;18.73;;
32964;SDS011;19317;48.226;11.686;2022-12-10T14:55:22;33.93;;;19.13;;
32964;SDS011;19317;48.226;11.686;2022-12-10T15:00:18;27.33;;;16.10;;
32964;SDS011;19317;48.226;11.686;2022-12-10T15:05:10;26.77;;;15.83;;
32964;SDS011;19317;48.226;11.686;2022-12-10T15:10:04;31.23;;;17.57;;
32964;SDS011;19317;48.226;11.686;2022-12-10T15:14:56;32.60;;;17.37;;
32964;SDS011;19317;48.226;11.686;2022-12-10T15:19:49;28.97;;;17.20;;
32964;SDS011;19317;48.226;11.686;2022-12-10T15:24:41;27.90;;;16.07;;
32964;SDS011;19317;48.226;11.686;2022-12-10T15:29:33;29.70;;;17.60;;
32964;SDS011;19317;48.226;11.686;2022-12-10T15:34:28;31.53;;;18.27;;
32964;SDS011;19317;48.226;11.686;2022-12-10T15:39:20;33.13;;;16.80;;
32964;SDS011;19317;48.226;11.686;2022-12-10T15:49:09;30.80;;;18.60;;
32964;SDS011;19317;48.226;11.686;2022-12-10T15:53:59;42.70;;;25.90;;
32964;SDS011;19317;48.226;11.686;2022-12-10T15:58:50;32.00;;;20.10;;
32964;SDS011;19317;48.226;11.686;2022-12-10T16:03:41;28.00;;;17.50;;
32964;SDS011;19317;48.226;11.686;2022-12-10T16:08:32;28.47;;;17.67;;
32964;SDS011;19317;48.226;11.686;2022-12-10T16:13:28;22.07;;;12.93;;
32964;SDS011;19317;48.226;11.686;2022-12-10T16:18:20;21.93;;;13.73;;
32964;SDS011;19317;48.226;11.686;2022-12-10T16:23:11;24.50;;;14.90;;
32964;SDS011;19317;48.226;11.686;2022-12-10T16:28:02;22.97;;;14.03;;
32964;SDS011;19317;48.226;11.686;2022-12-10T16:32:53;30.73;;;17.90;;
32964;SDS011;19317;48.226;11.686;2022-12-10T16:37:44;26.00;;;15.20;;
32964;SDS011;19317;48.226;11.686;2022-12-10T16:42:35;27.80;;;16.83;;
32964;SDS011;19317;48.226;11.686;2022-12-10T16:47:26;27.30;;;16.50;;
32964;SDS011;19317;48.226;11.686;2022-12-10T16:52:17;23.77;;;13.80;;
32964;SDS011;19317;48.226;11.686;2022-12-10T16:57:17;18.33;;;11.20;;
32964;SDS011;19317;48.226;11.686;2022-12-10T17:02:14;20.60;;;12.83;;
32964;SDS011;19317;48.226;11.686;2022-12-10T17:07:05;15.93;;;9.63;;
32964;SDS011;19317;48.226;11.686;2022-12-10T17:11:56;19.53;;;11.37;;
32964;SDS011;19317;48.226;11.686;2022-12-10T17:16:48;24.50;;;13.03;;
32964;SDS011;19317;48.226;11.686;2022-12-10T17:21:39;24.23;;;15.20;;
32964;SDS011;19317;48.226;11.686;2022-12-10T17:26:30;22.73;;;14.23;;
32964;SDS011;19317;48.226;11.686;2022-12-10T17:31:21;22.13;;;13.60;;
32964;SDS011;19317;48.226;11.686;2022-12-10T17:36:12;23.83;;;13.23;;
32964;SDS011;19317;48.226;11.686;2022-12-10T17:41:03;22.77;;;14.73;;
32964;SDS011;19317;48.226;11.686;2022-12-10T17:45:55;20.87;;;12.97;;
32964;SDS011;19317;48.226;11.686;2022-12-10T17:50:47;17.53;;;11.00;;
32964;SDS011;19317;48.226;11.686;2022-12-10T17:55:37;22.63;;;13.47;;
32964;SDS011;19317;48.226;11.686;2022-12-10T18:00:30;25.93;;;14.90;;
32964;SDS011;19317;48.226;11.686;2022-12-10T18:05:21;16.33;;;10.70;;
32964;SDS011;19317;48.226;11.686;2022-12-10T18:10:14;25.40;;;14.00;;
32964;SDS011;19317;48.226;11.686;2022-12-10T18:15:05;21.30;;;13.13;;
32964;SDS011;19317;48.226;11.686;2022-12-10T18:19:56;21.17;;;13.03;;
32964;SDS011;19317;48.226;11.686;2022-12-10T18:24:47;25.97;;;14.63;;
32964;SDS011;19317;48.226;11.686;2022-12-10T18:29:38;20.57;;;12.03;;
32964;SDS011;19317;48.226;11.686;2022-12-10T18:34:29;19.00;;;13.03;;
32964;SDS011;19317;48.226;11.686;2022-12-10T18:39:21;21.43;;;12.90;;
32964;SDS011;19317;48.226;11.686;2022-12-10T18:44:13;16.53;;;11.23;;
32964;SDS011;19317;48.226;11.686;2022-12-10T18:49:03;25.63;;;14.67;;
32964;SDS011;19317;48.226;11.686;2022-12-10T18:53:54;15.27;;;8.40;;
32964;SDS011;19317;48.226;11.686;2022-12-10T18:58:45;19.87;;;7.40;;
32964;SDS011;19317;48.226;11.686;2022-12-10T19:03:36;25.77;;;14.03;;
32964;SDS011;19317;48.226;11.686;2022-12-10T19:08:27;24.57;;;13.73;;
32964;SDS011;19317;48.226;11.686;2022-12-10T19:13:18;23.53;;;13.43;;
32964;SDS011;19317;48.226;11.686;2022-12-10T19:18:10;24.97;;;15.40;;
32964;SDS011;19317;48.226;11.686;2022-12-10T19:23:01;24.40;;;14.93;;
32964;SDS011;19317;48.226;11.686;2022-12-10T19:27:52;23.93;;;15.60;;
32964;SDS011;19317;48.226;11.686;2022-12-10T19:32:43;26.53;;;14.17;;
32964;SDS011;19317;48.226;11.686;2022-12-10T19:37:34;20.13;;;13.30;;
32964;SDS011;19317;48.226;11.686;2022-12-10T19:42:24;21.03;;;13.63;;
32964;SDS011;19317;48.226;11.686;2022-12-10T19:47:16;24.90;;;13.83;;
32964;SDS011;19317;48.226;11.686;2022-12-10T19:52:07;25.13;;;15.13;;
32964;SDS011;19317;48.226;11.686;2022-12-10T19:56:57;25.47;;;15.57;;
32964;SDS011;19317;48.226;11.686;2022-12-10T20:01:48;25.17;;;15.07;;
32964;SDS011;19317;48.226;11.686;2022-12-10T20:06:40;23.23;;;14.57;;
32964;SDS011;19317;48.226;11.686;2022-12-10T20:11:31;23.03;;;13.93;;
32964;SDS011;19317;48.226;11.686;2022-12-10T20:16:26;26.70;;;15.83;;
32964;SDS011;19317;48.226;11.686;2022-12-10T20:21:18;29.37;;;16.37;;
32964;SDS011;19317;48.226;11.686;2022-12-10T20:26:23;21.40;;;14.40;;
32964;SDS011;19317;48.226;11.686;2022-12-10T20:31:16;26.67;;;15.80;;
32964;SDS011;19317;48.226;11.686;2022-12-10T20:36:10;29.00;;;16.57;;
32964;SDS011;19317;48.226;11.686;2022-12-10T20:41:02;21.70;;;13.50;;
32964;SDS011;19317;48.226;11.686;2022-12-10T20:45:53;18.00;;;10.57;;
32964;SDS011;19317;48.226;11.686;2022-12-10T20:50:44;17.03;;;10.67;;
32964;SDS011;19317;48.226;11.686;2022-12-10T20:55:35;24.77;;;15.00;;
32964;SDS011;19317;48.226;11.686;2022-12-10T21:00:26;26.03;;;13.57;;
32964;SDS011;19317;48.226;11.686;2022-12-10T21:05:17;27.90;;;15.40;;
32964;SDS011;19317;48.226;11.686;2022-12-10T21:10:10;30.27;;;16.97;;
32964;SDS011;19317;48.226;11.686;2022-12-10T21:15:03;25.23;;;15.33;;
32964;SDS011;19317;48.226;11.686;2022-12-10T21:19:54;23.57;;;13.83;;
32964;SDS011;19317;48.226;11.686;2022-12-10T21:24:45;16.80;;;10.03;;
32964;SDS011;19317;48.226;11.686;2022-12-10T21:29:36;16.77;;;10.67;;
32964;SDS011;19317;48.226;11.686;2022-12-10T21:34:27;21.57;;;13.00;;
32964;SDS011;19317;48.226;11.686;2022-12-10T21:39:17;18.43;;;10.97;;
32964;SDS011;19317;48.226;11.686;2022-12-10T21:44:08;20.27;;;12.20;;
32964;SDS011;19317;48.226;11.686;2022-12-10T21:48:59;10.93;;;8.30;;
32964;SDS011;19317;48.226;11.686;2022-12-10T21:53:50;18.23;;;11.73;;
32964;SDS011;19317;48.226;11.686;2022-12-10T21:58:41;21.23;;;13.80;;
32964;SDS011;19317;48.226;11.686;2022-12-10T22:03:32;15.43;;;10.07;;
32964;SDS011;19317;48.226;11.686;2022-12-10T22:08:23;20.57;;;12.20;;
32964;SDS011;19317;48.226;11.686;2022-12-10T22:13:14;17.50;;;10.57;;
32964;SDS011;19317;48.226;11.686;2022-12-10T22:18:05;22.43;;;13.13;;
32964;SDS011;19317;48.226;11.686;2022-12-10T22:22:56;24.07;;;15.40;;
32964;SDS011;19317;48.226;11.686;2022-12-10T22:27:47;17.20;;;10.70;;
32964;SDS011;19317;48.226;11.686;2022-12-10T22:32:38;18.87;;;12.87;;
32964;SDS011;19317;48.226;11.686;2022-12-10T22:37:29;21.40;;;14.10;;
32964;SDS011;19317;48.226;11.686;2022-12-10T22:42:20;23.73;;;14.93;;
32964;SDS011;19317;48.226;11.686;2022-12-10T22:47:11;21.30;;;13.17;;
32964;SDS011;19317;48.226;11.686;2022-12-10T22:52:01;18.77;;;12.03;;
32964;SDS011;19317;48.226;11.686;2022-12-10T22:56:52;21.50;;;12.97;;
32964;SDS011;19317;48.226;11.686;2022-12-10T23:01:43;15.63;;;10.80;;
32964;SDS011;19317;48.226;11.686;2022-12-10T23:06:34;28.07;;;11.70;;
32964;SDS011;19317;48.226;11.686;2022-12-10T23:11:25;16.47;;;10.57;;
32964;SDS011;19317;48.226;11.686;2022-12-10T23:16:16;16.40;;;10.77;;
32964;SDS011;19317;48.226;11.686;2022-12-10T23:21:17;21.97;;;11.77;;
32964;SDS011;19317;48.226;11.686;2022-12-10T23:26:09;17.40;;;10.67;;
32964;SDS011;19317;48.226;11.686;2022-12-10T23:31:00;20.77;;;11.77;;
32964;SDS011;19317;48.226;11.686;2022-12-10T23:35:51;16.43;;;10.57;;
32964;SDS011;19317;48.226;11.686;2022-12-10T23:40:42;16.37;;;10.23;;
32964;SDS011;19317;48.226;11.686;2022-12-10T23:45:33;19.57;;;12.20;;
32964;SDS011;19317;48.226;11.686;2022-12-10T23:50:24;17.70;;;11.53;;
32964;SDS011;19317;48.226;11.686;2022-12-10T23:55:15;13.03;;;8.93;;
